Impacts TAF Board
For situational awareness. Not to be used for flight planning purposes.
IDs:

KLAS - Las Vegas/McCarran I, NV, US

Issued at 1723 UTC 22 Sep 2018
Updated at 1831 UTC 22 Sep 2018
Potential Impact None Slight Moderate High
Time1756Z 22/19Z 22/20Z 22/21Z 22/22Z 22/23Z 23/00Z 23/01Z 23/02Z 23/03Z 23/04Z 23/05Z 23/06Z 23/07Z>>
Type OBS PRVL PRVL PRVL PRVL PRVL PRVL PRVL PRVL PRVL PRVL PRVL PRVL PRVL
VIS 10 >6 >6 >6 >6 >6 >6 >6 >6 >6 >6 >6 >6 >6
CIG -- -- -- -- -- -- -- -- -- -- -- -- -- --
Cover FEW FEW FEW FEW FEW FEW FEW FEW SKC SKC SKC SKC SKC SKC
FltCat VFR VFR VFR VFR VFR VFR VFR VFR VFR VFR VFR VFR VFR VFR
WX -- -- -- -- -- -- -- -- -- -- -- -- -- --
WDir 100 70 180 180 180 180 180 180 210 210 210 210 210 210
WSpd 5 6 11 11 11 11 11 11 9 9 9 9 9 9
WGst -- -- 20 20 20 20 20 20 -- -- -- -- -- --
Raw TAF
KLAS 221723Z 2218/2324 07006KT P6SM FEW120
  FM222000 18011G20KT P6SM FEW120
  FM230200 21009KT P6SM SKC
  FM231300 VRB05KT P6SM FEW120
  FM231900 21012G20KT P6SM FEW120


Raw METAR
KLAS 221756Z 10005KT 10SM FEW120 32/06 A3001 RMK AO2 SLP135 T03170056 10317 20239 50001
KLAS 221656Z 00000KT 10SM FEW120 31/02 A3003 RMK AO2 SLP139 T03060022
KLAS 221556Z VRB03KT 10SM CLR 29/03 A3002 RMK AO2 SLP138 T02890033

METAR Board
Radar Display
Forecast Discussion
For situational awareness. Not to be used for flight planning purposes.